Time;durP1;ratioP1;P1;durP2;ratioP2;P2;SDS_P1;SDS_P2;PMS_P1;PMS_P2;Temp;Humidity;BMP_temperature;BMP_pressure;BME280_temperature;BME280_humidity;BME280_pressure;Samples;Min_cycle;Max_cycle;Signal;HPM_P1;HPM_P2
2021/06/24 00:02:03;;;;;;;;;9.75;9.25;;;;;16.17;60.47;101862.06;6306771;22;45231;-90
2021/06/24 00:04:31;;;;;;;;;11.25;9.75;;;;;16.21;60.53;101867.22;6278076;22;48036;-89
2021/06/24 00:06:57;;;;;;;;;11.50;10.25;;;;;16.23;60.43;101866.22;6277934;22;45232;-89
2021/06/24 00:09:23;;;;;;;;;11.25;10.00;;;;;16.26;60.47;101860.00;6278846;22;45331;-90
2021/06/24 00:11:48;;;;;;;;;11.00;10.00;;;;;16.30;60.45;101859.78;6279100;22;45433;-89
2021/06/24 00:14:14;;;;;;;;;9.50;9.25;;;;;16.29;60.29;101863.34;6304526;22;46274;-89
2021/06/24 00:16:39;;;;;;;;;12.25;12.00;;;;;16.30;60.43;101854.53;6305594;22;45330;-90
2021/06/24 00:19:05;;;;;;;;;10.50;9.00;;;;;16.31;60.18;101852.78;6278825;22;45421;-89
2021/06/24 00:21:31;;;;;;;;;16.25;10.25;;;;;16.34;60.61;101850.00;6278594;22;45405;-90
2021/06/24 00:23:56;;;;;;;;;9.75;9.25;;;;;16.31;60.33;101847.53;6278490;22;46853;-90
2021/06/24 00:26:22;;;;;;;;;12.75;8.00;;;;;16.31;60.29;101850.16;6303983;22;45259;-90
2021/06/24 00:28:47;;;;;;;;;10.75;8.50;;;;;16.27;60.25;101845.94;6278542;22;45321;-90
2021/06/24 00:31:13;;;;;;;;;10.25;9.00;;;;;16.28;60.75;101840.63;6306719;22;45527;-90
2021/06/24 00:33:38;;;;;;;;;9.00;8.25;;;;;16.26;60.46;101838.97;6278028;22;48123;-89
2021/06/24 00:36:04;;;;;;;;;9.00;9.00;;;;;16.26;60.36;101839.81;6304307;22;45498;-89
2021/06/24 00:38:30;;;;;;;;;9.25;8.75;;;;;16.30;60.35;101838.78;6306133;22;45721;-89
2021/06/24 00:40:56;;;;;;;;;11.00;10.50;;;;;16.33;60.69;101840.41;6304976;22;45383;-90
2021/06/24 00:43:24;;;;;;;;;9.00;9.00;;;;;16.30;60.59;101832.69;6278376;22;47157;-90
2021/06/24 00:45:50;;;;;;;;;10.50;8.50;;;;;16.33;60.49;101835.16;6278143;22;45945;-89
2021/06/24 00:48:15;;;;;;;;;12.00;10.25;;;;;16.32;60.22;101829.97;6303654;22;45258;-90
2021/06/24 00:50:44;;;;;;;;;10.00;8.50;;;;;16.31;60.39;101829.13;6304817;22;45387;-89
2021/06/24 00:53:10;;;;;;;;;10.25;9.00;;;;;16.30;60.30;101827.44;6278255;22;47294;-89
2021/06/24 00:55:44;;;;;;;;;8.00;8.00;;;;;16.29;60.20;101828.34;6305890;22;45345;-90
2021/06/24 00:58:17;;;;;;;;;14.50;11.00;;;;;16.28;60.29;101822.25;6306206;22;45419;-89
2021/06/24 01:00:44;;;;;;;;;9.75;9.25;;;;;16.29;60.28;101820.44;6304114;22;45406;-90
2021/06/24 01:03:12;;;;;;;;;10.25;9.25;;;;;16.29;60.24;101820.44;6277768;22;46175;-89
2021/06/24 01:05:38;;;;;;;;;10.25;9.25;;;;;16.30;60.17;101830.91;6278183;22;45365;-90
2021/06/24 01:08:05;;;;;;;;;13.25;12.00;;;;;16.29;60.15;101823.06;6278499;22;45395;-90
2021/06/24 01:10:30;;;;;;;;;9.50;8.75;;;;;16.30;60.45;101819.56;6304106;22;44936;-90
2021/06/24 01:12:56;;;;;;;;;9.67;8.67;;;;;16.29;60.00;101821.31;6278178;22;46790;-89
2021/06/24 01:15:22;;;;;;;;;8.67;8.33;;;;;16.27;60.26;101817.03;6305874;22;45238;-90
2021/06/24 01:17:47;;;;;;;;;15.75;12.00;;;;;16.26;59.97;101816.19;6277430;22;45300;-90
2021/06/24 01:20:14;;;;;;;;;10.33;9.67;;;;;16.26;60.15;101817.97;6277978;22;44839;-90
2021/06/24 01:22:40;;;;;;;;;13.00;10.00;;;;;16.27;60.10;101814.41;6305710;22;46174;-90
2021/06/24 01:25:06;;;;;;;;;10.50;10.50;;;;;16.26;60.10;101816.19;6304139;22;45502;-89
2021/06/24 01:27:32;;;;;;;;;8.50;8.50;;;;;16.26;60.19;101810.09;6278490;22;45385;-90
2021/06/24 01:29:57;;;;;;;;;11.00;9.00;;;;;16.27;60.40;101809.16;6306381;22;45484;-90
2021/06/24 01:32:27;;;;;;;;;10.25;9.00;;;;;16.26;60.05;101799.59;6277428;22;46346;-89
2021/06/24 01:34:52;;;;;;;;;10.25;8.00;;;;;16.26;59.88;101800.41;6277741;22;45414;-90
2021/06/24 01:37:17;;;;;;;;;10.00;10.00;;;;;16.23;60.21;101800.56;6277832;22;45699;-90
2021/06/24 01:39:43;;;;;;;;;7.75;7.50;;;;;16.23;60.24;101795.31;6306598;22;45451;-89
2021/06/24 01:42:13;;;;;;;;;13.25;8.50;;;;;16.21;60.00;101797.16;6277626;22;47063;-90
2021/06/24 01:44:39;;;;;;;;;7.50;7.00;;;;;16.22;60.32;101796.25;6305980;22;45174;-90
2021/06/24 01:47:08;;;;;;;;;11.75;9.75;;;;;16.24;60.16;101797.03;6277925;22;45373;-90
2021/06/24 01:49:33;;;;;;;;;7.50;7.00;;;;;16.20;60.17;101797.22;6306285;22;45376;-90
2021/06/24 01:51:59;;;;;;;;;10.00;9.25;;;;;16.22;60.23;101798.00;6305437;22;46266;-89
2021/06/24 01:54:24;;;;;;;;;10.50;8.75;;;;;16.16;60.18;101778.97;6305560;22;45411;-89
2021/06/24 01:56:50;;;;;;;;;7.50;7.50;;;;;16.21;60.27;101794.53;6278198;22;45355;-89
2021/06/24 01:59:16;;;;;;;;;11.25;7.50;;;;;16.22;60.41;101792.75;6305980;22;45445;-89
2021/06/24 02:01:42;;;;;;;;;10.00;9.00;;;;;16.19;60.25;101795.53;6304203;22;46751;-89
2021/06/24 02:04:08;;;;;;;;;7.75;7.75;;;;;16.16;60.23;101789.47;6305227;22;45306;-89
2021/06/24 02:06:34;;;;;;;;;9.25;8.75;;;;;16.16;60.42;101789.47;6305137;22;45272;-89
2021/06/24 02:08:59;;;;;;;;;11.00;10.50;;;;;16.16;60.54;101786.00;6305990;22;45683;-89
2021/06/24 02:11:25;;;;;;;;;11.25;7.75;;;;;16.20;60.29;101789.34;6277427;22;46909;-89
2021/06/24 02:13:50;;;;;;;;;9.50;7.75;;;;;16.19;60.27;101785.03;6305282;22;45404;-90
2021/06/24 02:16:16;;;;;;;;;9.75;7.00;;;;;16.18;60.17;101771.03;6277847;22;45276;-89
2021/06/24 02:18:41;;;;;;;;;9.25;9.25;;;;;16.20;60.35;101773.59;6303672;22;45202;-90
2021/06/24 02:21:07;;;;;;;;;7.25;7.00;;;;;16.20;60.53;101777.06;6303199;22;46875;-89
2021/06/24 02:23:33;;;;;;;;;9.75;9.50;;;;;16.19;60.27;101770.09;6305757;22;45214;-89
2021/06/24 02:25:58;;;;;;;;;7.00;7.00;;;;;16.21;60.13;101775.28;6277075;22;45263;-89
2021/06/24 07:12:09;;;;;;;;;10.50;9.75;;;;;15.84;59.63;101825.75;6246910;22;45673;-89
2021/06/24 07:14:34;;;;;;;;;12.25;9.75;;;;;15.87;59.39;101830.91;6302236;22;45634;-89
2021/06/24 07:17:00;;;;;;;;;9.25;8.50;;;;;15.90;59.52;101833.41;6271932;22;47854;-89
2021/06/24 07:19:25;;;;;;;;;8.00;8.00;;;;;15.92;59.45;101833.31;6302248;22;45259;-89
2021/06/24 07:21:51;;;;;;;;;9.00;8.00;;;;;15.94;59.49;101831.53;6303352;22;45334;-88
2021/06/24 07:24:18;;;;;;;;;9.00;9.00;;;;;15.96;59.67;101829.69;6305547;22;45594;-88
2021/06/24 07:26:44;;;;;;;;;10.00;8.00;;;;;15.99;59.61;101832.22;6305705;22;45634;-89
2021/06/24 07:29:09;;;;;;;;;9.00;9.00;;;;;16.03;59.29;101831.13;6303848;22;45684;-89
2021/06/24 07:31:35;;;;;;;;;9.00;8.00;;;;;16.02;59.84;101826.81;6305958;22;45795;-89
2021/06/24 07:34:00;;;;;;;;;10.00;8.25;;;;;16.07;59.34;101834.53;6305127;22;45428;-89
2021/06/24 07:36:25;;;;;;;;;9.50;9.50;;;;;16.09;59.20;101835.28;6303027;22;45270;-88
2021/06/24 07:38:51;;;;;;;;;8.25;8.00;;;;;16.12;59.20;101836.94;6301803;22;45350;-89
2021/06/24 07:41:16;;;;;;;;;12.00;8.00;;;;;16.11;59.11;101835.25;6275824;22;45627;-88
2021/06/24 07:43:42;;;;;;;;;8.75;8.75;;;;;16.15;59.10;101844.66;6278525;22;45533;-89
2021/06/24 07:46:07;;;;;;;;;9.50;8.00;;;;;16.15;59.38;101842.03;6305630;22;45321;-88
2021/06/24 07:48:32;;;;;;;;;8.25;8.00;;;;;16.17;59.03;101838.44;6277689;22;45408;-88
2021/06/24 07:50:58;;;;;;;;;11.50;9.00;;;;;16.22;58.96;101845.28;6303726;22;45250;-88
2021/06/24 07:53:23;;;;;;;;;10.25;10.25;;;;;16.28;59.00;101847.63;6278028;22;45759;-89
2021/06/24 07:55:49;;;;;;;;;8.75;8.00;;;;;16.28;58.98;101835.38;6277792;22;47214;-89
2021/06/24 07:58:15;;;;;;;;;10.75;10.50;;;;;16.32;58.70;101843.09;6277683;22;45362;-89
2021/06/24 08:00:40;;;;;;;;;10.25;9.00;;;;;16.33;58.96;101840.41;6305764;22;45330;-88
2021/06/24 08:03:06;;;;;;;;;13.25;9.00;;;;;16.36;58.95;101848.19;6277970;22;45355;-88
2021/06/24 08:05:32;;;;;;;;;11.25;10.25;;;;;16.40;58.69;101846.28;6305604;22;45307;-88
2021/06/24 08:07:57;;;;;;;;;8.25;7.75;;;;;16.38;58.67;101840.25;6305513;22;45310;-88
2021/06/24 08:10:23;;;;;;;;;12.00;10.00;;;;;16.40;58.69;101847.09;6277896;22;45904;-89
2021/06/24 08:12:48;;;;;;;;;11.75;9.50;;;;;16.42;58.85;101847.06;6306474;22;45409;-89
2021/06/24 08:15:17;;;;;;;;;12.50;12.25;;;;;16.44;58.74;101839.97;6305646;22;44935;-89
2021/06/24 08:17:45;;;;;;;;;8.50;8.50;;;;;16.52;58.78;101843.09;6303282;22;45301;-89
2021/06/24 08:20:12;;;;;;;;;10.00;10.00;;;;;16.54;58.48;101840.41;6277415;22;45416;-88
2021/06/24 08:22:37;;;;;;;;;11.75;9.50;;;;;16.60;58.61;101841.91;6300687;22;45404;-88
2021/06/24 08:25:04;;;;;;;;;12.25;10.25;;;;;16.65;58.56;101846.06;6277551;22;47438;-88
2021/06/24 08:27:30;;;;;;;;;12.75;11.50;;;;;16.66;58.42;101847.75;6276754;22;45437;-88
2021/06/24 08:29:57;;;;;;;;;14.50;11.25;;;;;16.68;58.70;101847.69;6305145;22;45368;-88
2021/06/24 08:32:22;;;;;;;;;15.00;11.75;;;;;16.69;58.48;101847.63;6306588;22;45540;-88
2021/06/24 08:34:48;;;;;;;;;13.00;13.00;;;;;16.72;58.17;101848.41;6305768;22;45365;-88
2021/06/24 08:37:13;;;;;;;;;13.00;10.75;;;;;16.76;58.59;101852.63;6305506;22;45338;-88
2021/06/24 08:39:40;;;;;;;;;10.75;10.75;;;;;16.80;58.03;101857.66;6306201;22;45381;-89
2021/06/24 08:42:06;;;;;;;;;13.50;11.50;;;;;16.78;58.18;101853.38;6305904;22;45674;-88
2021/06/24 08:44:32;;;;;;;;;11.25;10.50;;;;;16.83;58.50;101849.66;6305718;22;45341;-89
2021/06/24 08:46:59;;;;;;;;;12.50;11.00;;;;;16.91;58.41;101851.94;6306094;22;45254;-88
2021/06/24 08:49:26;;;;;;;;;13.50;12.75;;;;;16.97;58.22;101848.16;6278046;22;45260;-88
2021/06/24 08:51:57;;;;;;;;;15.25;11.25;;;;;17.02;58.33;101850.56;6303726;22;45377;-88
2021/06/24 08:54:23;;;;;;;;;12.00;12.00;;;;;17.09;58.25;101846.78;6277089;22;48154;-88
2021/06/24 08:56:50;;;;;;;;;12.25;10.75;;;;;17.12;58.15;101849.25;6305908;22;45160;-88
2021/06/24 08:59:16;;;;;;;;;10.25;10.00;;;;;17.19;57.99;101855.97;6305833;22;45231;-88
2021/06/24 09:01:52;;;;;;;;;12.25;10.00;;;;;17.21;58.09;101854.09;6306235;22;45297;-88
2021/06/24 09:04:25;;;;;;;;;12.00;12.00;;;;;17.27;57.79;101860.00;6277479;22;46999;-88
2021/06/24 09:06:52;;;;;;;;;12.00;10.00;;;;;17.30;58.00;101859.84;6305378;22;45353;-88
2021/06/24 09:09:31;;;;;;;;;10.75;10.75;;;;;17.31;57.90;101856.31;6277815;22;45251;-88
2021/06/24 09:12:10;;;;;;;;;12.75;10.50;;;;;17.38;57.54;101863.00;6277777;22;45603;-88
2021/06/24 09:14:52;;;;;;;;;10.75;10.75;;;;;17.41;57.67;101859.38;6305795;22;45186;-87
2021/06/24 09:17:38;;;;;;;;;13.00;13.00;;;;;17.50;57.86;101866.84;6305319;22;45414;-88
2021/06/24 09:20:06;;;;;;;;;10.75;10.75;;;;;17.55;57.41;101870.06;6306184;22;45857;-89
2021/06/24 09:22:32;;;;;;;;;10.50;9.25;;;;;17.60;57.53;101864.59;6277702;22;45128;-88
2021/06/24 09:24:57;;;;;;;;;10.00;9.25;;;;;17.59;57.24;101858.47;6277719;22;47183;-88
2021/06/24 09:27:29;;;;;;;;;13.25;11.50;;;;;17.67;57.29;101871.28;6277238;22;46142;-89
2021/06/24 09:30:09;;;;;;;;;11.50;11.50;;;;;17.73;57.57;101865.72;6306018;22;45269;-88
2021/06/24 09:32:37;;;;;;;;;10.50;9.75;;;;;17.73;57.27;101857.81;6277524;22;45377;-89
2021/06/24 09:35:06;;;;;;;;;11.50;11.50;;;;;17.78;57.16;101862.88;6277887;22;48165;-88
2021/06/24 09:38:04;;;;;;;;;13.75;13.50;;;;;17.86;57.21;101867.72;6305170;22;45226;-88
2021/06/24 09:40:46;;;;;;;;;9.75;9.25;;;;;17.91;57.27;101865.72;6304948;22;45340;-87
2021/06/24 09:43:15;;;;;;;;;9.50;8.25;;;;;17.98;56.97;101871.56;6277477;22;45543;-88
2021/06/24 09:45:58;;;;;;;;;14.75;11.25;;;;;17.98;56.74;101864.53;6304708;22;46070;-88
2021/06/24 09:48:38;;;;;;;;;11.75;10.75;;;;;18.06;56.47;101869.44;6305516;22;45340;-87
2021/06/24 09:51:28;;;;;;;;;9.75;9.75;;;;;18.07;56.60;101868.50;6306020;22;45301;-87
2021/06/24 09:54:06;;;;;;;;;11.50;8.25;;;;;18.09;56.70;101866.63;6276855;22;45696;-88
2021/06/24 09:56:36;;;;;;;;;8.50;8.50;;;;;18.15;56.16;101878.66;6277194;22;47048;-88
2021/06/24 09:59:05;;;;;;;;;12.00;9.25;;;;;18.14;56.56;101872.53;6305426;22;45096;-89
2021/06/24 10:01:43;;;;;;;;;9.67;8.33;;;;;18.22;56.32;101876.56;6277526;22;45288;-88
2021/06/24 10:04:19;;;;;;;;;10.67;10.00;;;;;18.29;56.03;101883.25;6305726;22;45238;-89
2021/06/24 10:06:50;;;;;;;;;10.67;8.00;;;;;18.34;56.41;101883.88;6305020;22;46062;-88
2021/06/24 10:09:16;;;;;;;;;11.25;10.75;;;;;18.40;56.34;101873.00;6304674;22;45349;-89
2021/06/24 10:11:44;;;;;;;;;10.33;9.33;;;;;18.45;55.88;101874.53;6305159;22;45183;-89
2021/06/24 10:14:10;;;;;;;;;10.25;9.00;;;;;18.46;55.38;101884.16;6277387;22;45508;-88
2021/06/24 10:16:36;;;;;;;;;10.33;9.00;;;;;18.49;55.65;101876.09;6305400;22;45400;-88
2021/06/24 10:19:03;;;;;;;;;8.00;8.00;;;;;18.49;55.04;101876.94;6276693;22;45446;-89
2021/06/24 10:21:31;;;;;;;;;11.00;9.00;;;;;18.53;56.12;101882.91;6303671;22;45452;-88
2021/06/24 10:24:02;;;;;;;;;11.67;10.67;;;;;18.54;55.67;101880.19;6277369;22;45366;-88
2021/06/24 10:26:30;;;;;;;;;12.67;9.67;;;;;18.59;55.54;101877.31;6305271;22;45870;-89
2021/06/24 10:29:15;;;;;;;;;11.00;9.00;;;;;18.67;55.43;101879.56;6277535;22;45317;-88
2021/06/24 10:31:48;;;;;;;;;12.00;10.00;;;;;18.68;55.26;101881.25;6305705;22;45420;-88
2021/06/24 10:34:18;;;;;;;;;9.00;9.00;;;;;18.69;55.35;101875.03;6304400;22;45372;-88
2021/06/24 10:37:09;;;;;;;;;10.00;10.00;;;;;18.75;54.66;101884.44;6305042;22;45910;-88
2021/06/24 10:39:36;;;;;;;;;13.25;12.00;;;;;18.73;54.87;101879.22;6304328;22;45255;-88
2021/06/24 10:42:08;;;;;;;;;10.50;9.50;;;;;18.77;54.60;101879.91;6304241;22;45649;-88
2021/06/24 10:44:52;;;;;;;;;12.33;9.67;;;;;18.78;54.59;101878.97;6277184;22;45432;-89
2021/06/24 10:47:38;;;;;;;;;9.75;9.75;;;;;18.84;54.48;101883.91;6304474;22;45369;-88
2021/06/24 10:50:38;;;;;;;;;10.50;9.00;;;;;18.89;54.38;101888.97;6303694;22;45821;-89
2021/06/24 10:53:04;;;;;;;;;12.00;10.00;;;;;18.92;54.01;101880.88;6306685;22;45216;-88
2021/06/24 10:55:39;;;;;;;;;12.67;10.33;;;;;18.92;54.39;101884.38;6304416;22;45616;-88
2021/06/24 10:58:10;;;;;;;;;12.75;10.00;;;;;19.03;54.45;101880.31;6276238;22;47593;-89
2021/06/24 11:00:56;;;;;;;;;11.25;11.25;;;;;19.06;53.56;101880.16;6274889;22;45418;-88
2021/06/24 11:03:35;;;;;;;;;10.00;10.00;;;;;19.13;53.88;101875.41;6300882;22;45435;-89
2021/06/24 11:06:12;;;;;;;;;10.33;10.33;;;;;19.23;54.20;101863.44;6304068;22;45328;-88
2021/06/24 11:08:40;;;;;;;;;10.00;10.00;;;;;19.34;54.13;101870.75;6304908;22;45491;-88
2021/06/24 11:11:08;;;;;;;;;12.33;11.67;;;;;19.45;53.86;101862.25;6302843;22;45457;-89
2021/06/24 11:13:39;;;;;;;;;13.33;10.00;;;;;19.58;53.44;101865.06;6276111;22;45529;-89
2021/06/24 11:16:18;;;;;;;;;13.67;12.33;;;;;19.69;53.51;101867.94;6303424;22;45432;-89
2021/06/24 11:18:56;;;;;;;;;11.00;10.00;;;;;19.82;52.85;101872.50;6304650;22;45382;-89
2021/06/24 11:21:30;;;;;;;;;14.33;13.33;;;;;19.93;52.43;101866.59;6273967;22;45528;-89
2021/06/24 11:24:00;;;;;;;;;12.67;11.00;;;;;20.02;52.60;101866.97;6303684;22;45362;-89
2021/06/24 11:26:25;;;;;;;;;11.00;10.33;;;;;20.15;52.42;101864.44;6300723;22;45818;-89
2021/06/24 11:29:25;;;;;;;;;11.00;10.00;;;;;20.28;52.06;101861.09;6276123;22;48045;-89
2021/06/24 11:32:05;;;;;;;;;11.00;10.00;;;;;20.37;51.46;101852.59;6303687;22;45285;-89
2021/06/24 11:34:51;;;;;;;;;11.00;11.00;;;;;20.46;50.94;101861.75;6303034;22;45475;-89
2021/06/24 11:37:22;;;;;;;;;10.75;10.50;;;;;20.55;51.05;101865.66;6303354;22;45353;-89
2021/06/24 11:39:53;;;;;;;;;13.00;12.00;;;;;20.56;50.86;101859.41;6303176;22;46024;-89
2021/06/24 11:42:36;;;;;;;;;11.33;10.00;;;;;20.58;50.70;101872.53;6303880;22;45223;-89
2021/06/24 11:45:04;;;;;;;;;10.75;9.75;;;;;20.62;51.11;101864.34;6303609;22;45378;-90
2021/06/24 11:47:32;;;;;;;;;10.00;9.00;;;;;20.66;50.85;101863.22;6304078;22;45424;-90
2021/06/24 12:04:14;;;;;;;;;11.00;10.00;;;;;20.88;49.81;101856.59;6303416;22;45631;-89
2021/06/24 12:07:00;;;;;;;;;14.67;12.67;;;;;20.97;49.76;101863.13;6303852;22;45341;-89
2021/06/24 12:09:50;;;;;;;;;13.00;12.00;;;;;21.00;49.38;101859.41;6303895;22;45361;-90
2021/06/24 12:12:21;;;;;;;;;11.75;10.00;;;;;21.01;49.72;101858.50;6330978;22;46542;-89
2021/06/24 12:14:49;;;;;;;;;9.25;8.50;;;;;21.01;49.60;101851.38;6334576;22;45378;-88
2021/06/24 12:17:26;;;;;;;;;13.25;11.50;;;;;20.96;49.33;101853.47;6335163;22;45273;-89
2021/06/24 12:19:57;;;;;;;;;14.50;11.25;;;;;20.94;49.29;101855.38;6335568;22;45645;-89
2021/06/24 12:22:37;;;;;;;;;11.50;10.75;;;;;20.94;48.53;101861.53;6335124;22;45811;-89
2021/06/24 12:25:14;;;;;;;;;13.75;12.00;;;;;20.91;49.13;101867.00;6335914;22;45445;-89
2021/06/24 12:27:46;;;;;;;;;12.33;11.00;;;;;20.93;49.38;101867.75;6333477;22;45558;-88
2021/06/24 12:30:14;;;;;;;;;12.33;11.00;;;;;20.96;49.09;101861.41;6334832;22;45302;-89
2021/06/24 12:32:53;;;;;;;;;12.33;10.33;;;;;21.02;49.17;101861.03;6332881;22;46304;-88
2021/06/24 12:35:21;;;;;;;;;12.00;12.00;;;;;21.07;49.23;101856.28;6335108;22;45467;-89
2021/06/24 12:37:49;;;;;;;;;14.25;13.00;;;;;21.08;48.84;101847.44;6332795;22;45758;-89
2021/06/24 12:40:17;;;;;;;;;11.75;9.75;;;;;21.09;49.02;101837.69;6359473;22;45884;-89
2021/06/24 12:42:55;;;;;;;;;14.25;13.00;;;;;21.14;48.90;101840.88;6332515;22;46714;-89
2021/06/24 12:45:26;;;;;;;;;12.75;11.75;;;;;21.22;49.00;101843.03;6333761;22;45331;-89
2021/06/24 12:47:52;;;;;;;;;10.00;9.33;;;;;21.26;48.58;101843.69;6334937;22;45299;-88
2021/06/24 12:50:21;;;;;;;;;11.75;11.75;;;;;21.33;48.41;101840.56;6333903;22;45415;-89
2021/06/24 12:52:53;;;;;;;;;11.00;9.00;;;;;21.32;48.77;101844.16;6332610;22;47324;-89
2021/06/24 12:55:41;;;;;;;;;12.33;8.67;;;;;21.38;48.30;101837.59;6334857;22;45634;-89
2021/06/24 12:58:17;;;;;;;;;10.67;10.67;;;;;21.44;48.08;101833.72;6334196;22;45290;-88
2021/06/24 13:01:13;;;;;;;;;11.00;10.00;;;;;21.58;48.31;101830.19;6335859;22;45734;-89
2021/06/24 13:03:39;;;;;;;;;9.00;9.00;;;;;21.63;48.60;101830.72;6333377;22;45403;-89
2021/06/24 13:06:10;;;;;;;;;8.67;8.67;;;;;21.67;48.41;101836.66;6334587;22;45335;-90
2021/06/24 13:08:35;;;;;;;;;10.33;9.33;;;;;21.63;47.96;101831.56;6335161;22;45502;-89
2021/06/24 13:11:12;;;;;;;;;9.00;9.00;;;;;21.59;48.33;101835.38;6332672;22;45382;-89
2021/06/24 13:13:38;;;;;;;;;10.00;10.00;;;;;21.54;48.22;101839.25;6333976;22;46500;-89
2021/06/24 13:16:26;;;;;;;;;9.67;9.33;;;;;21.44;47.94;101839.84;6334914;22;45676;-94
2021/06/24 13:18:57;;;;;;;;;9.67;9.67;;;;;21.38;48.16;101836.78;6361255;22;45467;-89
2021/06/24 13:21:23;;;;;;;;;10.33;10.33;;;;;21.30;48.09;101834.63;6337598;22;45229;-89
2021/06/24 13:23:49;;;;;;;;;9.33;9.00;;;;;21.26;48.07;101830.47;6337379;22;45383;-88
2021/06/24 13:26:20;;;;;;;;;11.00;7.33;;;;;21.22;48.58;101835.09;6336699;22;45426;-89
2021/06/24 13:28:57;;;;;;;;;9.67;8.67;;;;;21.18;48.39;101833.59;6337026;22;45220;-89
2021/06/24 13:31:25;;;;;;;;;9.00;8.67;;;;;21.13;48.48;101833.91;6360116;22;45766;-89
2021/06/24 13:33:51;;;;;;;;;10.67;10.00;;;;;21.09;48.35;101840.31;6332117;22;46968;-89
2021/06/24 13:36:25;;;;;;;;;8.00;7.33;;;;;21.05;48.61;101837.03;6332134;22;45631;-89
2021/06/24 13:38:56;;;;;;;;;9.67;9.33;;;;;20.98;48.81;101834.88;6334021;22;45572;-88
2021/06/24 13:41:30;;;;;;;;;7.67;7.00;;;;;20.91;48.53;101835.25;6337200;22;45201;-89
2021/06/24 13:44:17;;;;;;;;;8.33;7.00;;;;;20.91;48.56;101834.38;6361653;22;47442;-89
2021/06/24 13:46:45;;;;;;;;;7.33;7.33;;;;;20.88;48.52;101837.25;6336162;22;45324;-90
2021/06/24 13:49:12;;;;;;;;;8.00;7.00;;;;;20.83;48.59;101835.69;6334461;22;45280;-89
2021/06/24 13:51:40;;;;;;;;;7.00;7.00;;;;;20.81;48.08;101834.09;6338007;22;45340;-89
2021/06/24 13:54:07;;;;;;;;;5.00;5.00;;;;;20.80;48.74;101838.56;6335311;22;48075;-89
2021/06/24 13:56:35;;;;;;;;;6.67;5.00;;;;;20.81;48.71;101842.91;6336647;22;45567;-89
2021/06/24 13:59:00;;;;;;;;;8.00;8.00;;;;;20.85;48.20;101840.94;6335375;22;45327;-90
2021/06/24 14:01:27;;;;;;;;;8.00;7.00;;;;;20.86;48.92;101837.34;6336420;22;45251;-89
2021/06/24 14:03:53;;;;;;;;;7.67;6.67;;;;;20.91;48.53;101842.31;6333403;22;45579;-89
2021/06/24 14:06:20;;;;;;;;;8.33;7.33;;;;;20.92;48.68;101841.41;6333758;22;45513;-89
2021/06/24 14:08:47;;;;;;;;;7.00;7.00;;;;;20.96;48.95;101843.75;6333664;22;45440;-90
2021/06/24 14:11:15;;;;;;;;;7.00;7.00;;;;;21.02;48.50;101844.31;6336606;22;45271;-89
2021/06/24 14:13:45;;;;;;;;;7.00;7.00;;;;;21.06;48.75;101836.06;6334253;22;47229;-90
2021/06/24 14:16:15;;;;;;;;;7.00;5.00;;;;;21.11;48.87;101838.44;6336501;22;45279;-90
2021/06/24 14:18:42;;;;;;;;;7.67;6.67;;;;;21.12;48.30;101834.84;6336809;22;45307;-89
2021/06/24 14:21:11;;;;;;;;;6.67;6.67;;;;;21.15;48.50;101836.47;6335421;22;45412;-90
2021/06/24 14:23:37;;;;;;;;;8.00;8.00;;;;;21.15;48.13;101839.94;6334399;22;47015;-89
2021/06/24 14:26:03;;;;;;;;;8.00;7.00;;;;;21.17;48.42;101837.19;6362914;22;45281;-89
2021/06/24 14:28:29;;;;;;;;;7.33;6.67;;;;;21.17;48.35;101845.13;6338248;22;45367;-89
2021/06/24 14:30:54;;;;;;;;;6.33;6.00;;;;;21.20;48.53;101839.66;6338271;22;45236;-89
2021/06/24 14:33:19;;;;;;;;;6.33;5.67;;;;;21.17;48.14;101832.75;6335600;22;47162;-90
2021/06/24 14:35:45;;;;;;;;;9.00;6.00;;;;;21.19;48.55;101841.44;6339054;22;45382;-89
2021/06/24 14:38:10;;;;;;;;;8.00;8.00;;;;;21.17;47.91;101837.19;6339819;22;45337;-90
2021/06/24 14:40:36;;;;;;;;;11.67;8.00;;;;;21.16;48.21;101833.69;6337932;22;45312;-89
2021/06/24 14:43:01;;;;;;;;;7.00;7.00;;;;;21.19;48.37;101832.63;6335850;22;47880;-89
2021/06/24 14:45:26;;;;;;;;;10.33;8.00;;;;;21.17;47.93;101834.56;6337344;22;45418;-88
2021/06/24 14:47:52;;;;;;;;;5.67;5.67;;;;;21.17;47.46;101832.75;6339692;22;45482;-90
2021/06/24 14:50:17;;;;;;;;;8.33;7.00;;;;;21.16;47.27;101823.09;6340088;22;45591;-88
2021/06/24 14:52:43;;;;;;;;;5.00;5.00;;;;;21.18;47.58;101823.88;6336362;22;47176;-90
2021/06/24 14:55:09;;;;;;;;;5.67;5.67;;;;;21.19;46.95;101824.69;6338429;22;45224;-90
2021/06/24 14:57:34;;;;;;;;;7.00;5.00;;;;;21.16;46.51;101816.97;6336038;22;45186;-90
2021/06/24 15:00:00;;;;;;;;;9.00;6.67;;;;;21.17;47.37;101811.59;6338619;22;45220;-89
2021/06/24 15:02:25;;;;;;;;;6.67;6.67;;;;;21.21;47.11;101813.06;6335586;22;47365;-89
2021/06/24 15:04:50;;;;;;;;;7.67;7.00;;;;;21.29;47.01;101812.59;6336193;22;45205;-89
2021/06/24 15:07:16;;;;;;;;;7.33;7.00;;;;;21.36;46.58;101811.25;6336543;22;45369;-90
2021/06/24 15:09:41;;;;;;;;;5.33;5.33;;;;;21.45;46.59;101812.44;6336689;22;45540;-89
2021/06/24 15:12:07;;;;;;;;;6.33;6.00;;;;;21.55;46.42;101820.63;6337748;22;45611;-89
2021/06/24 15:14:33;;;;;;;;;6.00;6.00;;;;;21.57;46.82;101816.06;6337515;22;45443;-90
2021/06/24 15:16:58;;;;;;;;;5.33;5.33;;;;;21.65;46.85;101812.09;6336090;22;45422;-89
2021/06/24 15:19:24;;;;;;;;;6.00;6.00;;;;;21.68;46.82;101809.22;6336375;22;45534;-89
2021/06/24 15:21:49;;;;;;;;;6.00;6.00;;;;;21.72;46.67;101814.22;6336088;22;46298;-89
2021/06/24 15:24:15;;;;;;;;;6.67;5.67;;;;;21.78;47.30;101810.34;6336036;22;45945;-90
2021/06/24 15:26:41;;;;;;;;;5.67;5.00;;;;;21.72;46.18;101810.75;6335812;22;45368;-89
2021/06/24 15:29:10;;;;;;;;;5.33;5.00;;;;;21.68;45.30;101806.56;6338255;22;45380;-89
2021/06/24 15:31:36;;;;;;;;;5.33;5.00;;;;;21.66;46.23;101816.44;6337850;22;45320;-89
2021/06/24 15:34:02;;;;;;;;;5.00;5.00;;;;;21.62;45.90;101808.66;6335807;22;45266;-89
2021/06/24 15:36:28;;;;;;;;;6.00;5.00;;;;;21.59;46.44;101810.69;6337243;22;45363;-89
2021/06/24 15:38:53;;;;;;;;;5.00;5.00;;;;;21.57;45.93;101804.66;6337747;22;45473;-89
2021/06/24 15:41:19;;;;;;;;;6.50;5.00;;;;;21.57;45.99;101805.47;6336072;22;46113;-89
2021/06/24 15:43:44;;;;;;;;;5.00;5.00;;;;;21.54;46.32;101797.75;6335833;22;45385;-89
2021/06/24 15:46:10;;;;;;;;;5.67;5.00;;;;;21.54;45.31;101799.53;6337943;22;45304;-89
2021/06/24 15:48:35;;;;;;;;;4.00;4.00;;;;;21.53;45.82;101795.19;6335819;22;45504;-89
2021/06/24 15:51:01;;;;;;;;;3.00;3.00;;;;;21.52;45.63;101796.16;6337748;22;45886;-90
2021/06/24 15:53:26;;;;;;;;;4.67;4.67;;;;;21.57;46.12;101791.41;6337775;22;45366;-89
2021/06/24 15:55:52;;;;;;;;;4.00;4.00;;;;;21.54;45.33;101784.50;6362472;22;45363;-90
2021/06/24 15:58:19;;;;;;;;;6.00;4.67;;;;;21.51;45.83;101784.69;6337782;22;45241;-89
2021/06/24 16:00:45;;;;;;;;;5.00;5.00;;;;;21.53;45.65;101790.75;6335179;22;46983;-89
2021/06/24 16:03:10;;;;;;;;;5.00;5.00;;;;;21.51;46.06;101790.00;6335606;22;45316;-89
2021/06/24 16:05:36;;;;;;;;;4.00;4.00;;;;;21.49;45.46;101782.16;6337426;22;45312;-89
2021/06/24 16:08:02;;;;;;;;;3.33;3.33;;;;;21.52;45.40;101790.84;6338502;22;45578;-89
2021/06/24 16:10:28;;;;;;;;;3.00;3.00;;;;;21.53;45.85;101782.81;6362104;22;47052;-89
2021/06/24 16:12:54;;;;;;;;;3.67;3.00;;;;;21.51;45.73;101776.75;6335657;22;45867;-89
2021/06/24 16:15:20;;;;;;;;;5.00;4.67;;;;;21.51;45.69;101779.41;6337649;22;45409;-89
2021/06/24 16:17:46;;;;;;;;;3.00;3.00;;;;;21.54;45.69;101784.50;6337713;22;44757;-89
2021/06/24 16:20:14;;;;;;;;;5.00;4.00;;;;;21.52;45.26;101783.75;6337860;22;45395;-89
2021/06/24 16:22:40;;;;;;;;;3.67;3.67;;;;;21.49;45.28;101781.31;6335475;22;45858;-89
2021/06/24 16:25:09;;;;;;;;;3.00;3.00;;;;;21.50;45.18;101785.66;6335998;22;45178;-89